GRZ581 Details

Departure: (PANI)
Arrival: (PAKN)
Route: ANI DCT SLIIM Q51 AKN


Current Weather Information
PANI 171656Z AUTO VRB06KT 10SM CLR 09/07 A3049 RMK AO2 SLP327 T00940067
PAKN 171654Z 36012KT 10SM SCT060 15/11 A3034 RMK AO2 SLP272 T01500106